createdAt,value
2017-12-15T00:00:26.892Z,987.88
2017-12-15T00:01:26.908Z,987.86
2017-12-15T00:02:26.925Z,987.84
2017-12-15T00:03:26.943Z,987.87
2017-12-15T00:04:26.990Z,987.84
2017-12-15T00:05:26.969Z,987.8
2017-12-15T00:06:26.990Z,987.76
2017-12-15T00:07:26.994Z,987.79
2017-12-15T00:08:27.011Z,987.79
2017-12-15T00:09:27.027Z,987.78
2017-12-15T00:10:27.047Z,987.74
2017-12-15T00:11:27.067Z,987.68
2017-12-15T00:12:27.083Z,987.7
2017-12-15T00:13:27.087Z,987.74
2017-12-15T00:14:27.108Z,987.78
2017-12-15T00:15:27.124Z,987.75
2017-12-15T00:16:27.137Z,987.78
2017-12-15T00:17:27.152Z,987.78
2017-12-15T00:19:27.184Z,987.75
2017-12-15T00:20:27.201Z,987.79
2017-12-15T00:21:27.224Z,987.78
2017-12-15T00:22:27.238Z,987.85
2017-12-15T00:23:27.243Z,987.79
2017-12-15T00:24:27.260Z,987.8
2017-12-15T00:25:27.275Z,987.8
2017-12-15T00:26:27.291Z,987.82
2017-12-15T00:27:27.308Z,987.87
2017-12-15T00:28:27.323Z,987.83
2017-12-15T00:29:27.331Z,987.86
2017-12-15T00:30:27.352Z,987.84
2017-12-15T00:31:27.366Z,987.84
2017-12-15T00:32:27.384Z,987.86
2017-12-15T00:33:27.392Z,987.87
2017-12-15T00:35:27.427Z,987.87
2017-12-15T00:36:27.444Z,987.86
2017-12-15T00:37:27.455Z,987.84
2017-12-15T00:38:27.479Z,987.83
2017-12-15T00:39:27.494Z,987.86
2017-12-15T00:40:27.499Z,987.86
2017-12-15T00:41:27.517Z,987.89
2017-12-15T00:42:27.541Z,987.88
2017-12-15T00:43:27.549Z,987.86
2017-12-15T00:44:27.566Z,987.86
2017-12-15T00:45:27.586Z,987.82
2017-12-15T00:46:27.604Z,987.85
2017-12-15T00:47:27.610Z,987.83
2017-12-15T00:48:27.621Z,987.83
2017-12-15T00:49:27.647Z,987.8
2017-12-15T00:51:27.671Z,987.79
2017-12-15T00:52:27.684Z,987.75
2017-12-15T00:53:27.706Z,987.76
2017-12-15T00:54:27.712Z,987.73
2017-12-15T00:55:27.734Z,987.72
2017-12-15T00:56:27.744Z,987.71
2017-12-15T00:57:27.770Z,987.69
2017-12-15T00:58:27.774Z,987.72
2017-12-15T00:59:27.796Z,987.71
2017-12-15T01:00:27.815Z,987.75
2017-12-15T01:01:27.826Z,987.69
2017-12-15T01:02:27.846Z,987.67
2017-12-15T01:03:27.861Z,987.71
2017-12-15T01:04:27.876Z,987.7
2017-12-15T01:05:27.890Z,987.64
2017-12-15T01:07:27.915Z,987.59
2017-12-15T01:08:27.937Z,987.6
2017-12-15T01:09:27.944Z,987.58
2017-12-15T01:10:27.967Z,987.58
2017-12-15T01:11:27.979Z,987.55
2017-12-15T01:12:27.986Z,987.56
2017-12-15T01:13:28.002Z,987.56
2017-12-15T01:14:28.023Z,987.59
2017-12-15T01:15:28.038Z,987.59
2017-12-15T01:16:28.057Z,987.6
2017-12-15T01:17:28.072Z,987.65
2017-12-15T01:18:28.083Z,987.64
2017-12-15T01:19:28.098Z,987.69
2017-12-15T01:20:28.112Z,987.66
2017-12-15T01:22:28.150Z,987.67
2017-12-15T01:23:28.159Z,987.72
2017-12-15T01:24:28.169Z,987.68
2017-12-15T01:25:28.195Z,987.76
2017-12-15T01:26:28.204Z,987.76
2017-12-15T01:27:28.218Z,987.75
2017-12-15T01:28:28.241Z,987.8
2017-12-15T01:29:28.250Z,987.78
2017-12-15T01:30:28.265Z,987.82
2017-12-15T01:31:28.275Z,987.87
2017-12-15T01:32:28.290Z,987.84
2017-12-15T01:33:28.306Z,987.87
2017-12-15T01:34:28.332Z,987.85
2017-12-15T01:35:28.336Z,987.86
2017-12-15T01:36:28.356Z,987.87
2017-12-15T01:37:28.371Z,987.94
2017-12-15T01:38:28.394Z,987.89
2017-12-15T01:39:28.406Z,987.9
2017-12-15T01:40:28.423Z,987.88
2017-12-15T01:41:28.429Z,987.86
2017-12-15T01:42:28.443Z,987.84
2017-12-15T01:43:28.462Z,987.82
2017-12-15T01:44:28.477Z,987.8
2017-12-15T01:45:28.496Z,987.84
2017-12-15T01:46:28.499Z,987.79
2017-12-15T01:47:28.519Z,987.78
2017-12-15T01:48:28.535Z,987.82
2017-12-15T01:49:28.550Z,987.83
2017-12-15T01:50:28.560Z,987.8
2017-12-15T01:51:28.582Z,987.75
2017-12-15T01:52:28.594Z,987.79
2017-12-15T01:54:28.619Z,987.74
2017-12-15T01:55:28.639Z,987.71
2017-12-15T01:56:28.659Z,987.69
2017-12-15T01:57:28.668Z,987.7
2017-12-15T01:58:28.679Z,987.7
2017-12-15T01:59:28.695Z,987.67
2017-12-15T02:00:28.715Z,987.65
2017-12-15T02:01:28.730Z,987.66
2017-12-15T02:02:28.748Z,987.64
2017-12-15T02:03:28.759Z,987.59
2017-12-15T02:04:28.771Z,987.57
2017-12-15T02:05:28.793Z,987.58
2017-12-15T02:06:28.802Z,987.57
2017-12-15T02:07:28.821Z,987.5
2017-12-15T02:08:28.826Z,987.55
2017-12-15T02:10:28.862Z,987.54
2017-12-15T02:11:28.876Z,987.57
2017-12-15T02:12:28.885Z,987.56
2017-12-15T02:13:28.907Z,987.56
2017-12-15T02:14:28.915Z,987.61
2017-12-15T02:15:28.930Z,987.54
2017-12-15T02:16:28.943Z,987.56
2017-12-15T02:17:28.963Z,987.59
2017-12-15T02:18:28.977Z,987.6
2017-12-15T02:19:29.001Z,987.63
2017-12-15T02:20:29.011Z,987.63
2017-12-15T02:21:29.026Z,987.64
2017-12-15T02:22:29.036Z,987.62
2017-12-15T02:23:29.049Z,987.63
2017-12-15T02:24:29.064Z,987.65
2017-12-15T02:26:29.093Z,987.67
2017-12-15T02:27:29.112Z,987.65
2017-12-15T02:28:29.121Z,987.64
2017-12-15T02:29:29.137Z,987.61
2017-12-15T02:30:29.153Z,987.62
2017-12-15T02:31:29.167Z,987.63
2017-12-15T02:32:29.181Z,987.61
2017-12-15T02:33:29.202Z,987.6
2017-12-15T02:34:29.213Z,987.62
2017-12-15T02:35:29.229Z,987.64
2017-12-15T02:36:29.236Z,987.63
2017-12-15T02:37:29.247Z,987.61
2017-12-15T02:38:29.266Z,987.65
2017-12-15T02:39:29.293Z,987.62
2017-12-15T02:40:29.292Z,987.67
2017-12-15T02:42:29.319Z,987.73
2017-12-15T02:43:29.337Z,987.69
2017-12-15T02:44:29.347Z,987.69
2017-12-15T02:45:29.366Z,987.75
2017-12-15T02:46:29.386Z,987.68
2017-12-15T02:47:29.398Z,987.69
2017-12-15T02:48:29.403Z,987.74
2017-12-15T02:49:29.418Z,987.71
2017-12-15T02:50:29.439Z,987.68
2017-12-15T02:51:29.456Z,987.64
2017-12-15T02:52:29.472Z,987.63
2017-12-15T02:53:29.486Z,987.64
2017-12-15T02:54:29.494Z,987.63
2017-12-15T02:55:29.512Z,987.61
2017-12-15T02:57:29.544Z,987.62
2017-12-15T02:58:29.551Z,987.62
2017-12-15T02:59:29.564Z,987.63
2017-12-15T03:00:29.581Z,987.64
2017-12-15T03:01:29.599Z,987.63
2017-12-15T03:02:29.608Z,987.58
2017-12-15T03:03:29.627Z,987.6
2017-12-15T03:04:29.635Z,987.59
2017-12-15T03:05:29.645Z,987.6
2017-12-15T03:06:29.659Z,987.66
2017-12-15T03:07:29.675Z,987.68
2017-12-15T03:08:29.693Z,987.69
2017-12-15T03:09:29.705Z,987.68
2017-12-15T03:10:29.721Z,987.67
2017-12-15T03:11:29.741Z,987.68
2017-12-15T03:12:29.744Z,987.7
2017-12-15T03:13:29.758Z,987.71
2017-12-15T03:14:29.779Z,987.71
2017-12-15T03:15:29.793Z,987.71
2017-12-15T03:16:29.810Z,987.72
2017-12-15T03:17:29.818Z,987.69
2017-12-15T03:18:29.838Z,987.67
2017-12-15T03:19:29.853Z,987.59
2017-12-15T03:20:29.856Z,987.59
2017-12-15T03:21:29.877Z,987.58
2017-12-15T03:22:29.885Z,987.6
2017-12-15T03:23:29.903Z,987.62
2017-12-15T03:24:29.916Z,987.57
2017-12-15T03:25:29.933Z,987.55
2017-12-15T03:26:29.946Z,987.56
2017-12-15T03:27:29.959Z,987.6
2017-12-15T03:29:29.982Z,987.65
2017-12-15T03:30:30.004Z,987.67
2017-12-15T03:31:30.015Z,987.66
2017-12-15T03:32:30.026Z,987.66
2017-12-15T03:33:30.049Z,987.65
2017-12-15T03:34:30.057Z,987.62
2017-12-15T03:35:30.077Z,987.64
2017-12-15T03:36:30.084Z,987.66
2017-12-15T03:37:30.101Z,987.65
2017-12-15T03:38:30.107Z,987.61
2017-12-15T03:39:30.122Z,987.59
2017-12-15T03:40:30.146Z,987.57
2017-12-15T03:41:30.155Z,987.54
2017-12-15T03:42:30.173Z,987.54
2017-12-15T03:43:30.191Z,987.51
2017-12-15T03:45:30.216Z,987.55
2017-12-15T03:46:30.229Z,987.53
2017-12-15T03:47:30.242Z,987.55
2017-12-15T03:48:30.256Z,987.54
2017-12-15T03:49:30.263Z,987.52
2017-12-15T03:50:30.273Z,987.52
2017-12-15T03:51:30.293Z,987.5
2017-12-15T03:52:30.307Z,987.51
2017-12-15T03:53:30.325Z,987.54
2017-12-15T03:54:30.329Z,987.48
2017-12-15T03:55:30.342Z,987.49
2017-12-15T03:56:30.362Z,987.49
2017-12-15T03:57:30.370Z,987.51
2017-12-15T03:58:30.394Z,987.5
2017-12-15T03:59:30.405Z,987.55
2017-12-15T04:01:30.425Z,987.57
2017-12-15T04:02:30.445Z,987.56
2017-12-15T04:03:30.459Z,987.61
2017-12-15T04:04:30.473Z,987.54
2017-12-15T04:05:30.494Z,987.54
2017-12-15T04:06:30.494Z,987.53
2017-12-15T04:07:30.509Z,987.49
2017-12-15T04:08:30.525Z,987.46
2017-12-15T04:09:30.536Z,987.51
2017-12-15T04:10:30.556Z,987.51
2017-12-15T04:11:30.573Z,987.52
2017-12-15T04:12:30.588Z,987.48
2017-12-15T04:13:30.592Z,987.49
2017-12-15T04:14:30.605Z,987.42
2017-12-15T04:15:30.627Z,987.46
2017-12-15T04:17:30.650Z,987.46
2017-12-15T04:18:30.666Z,987.49
2017-12-15T04:19:30.674Z,987.49
2017-12-15T04:20:30.694Z,987.45
2017-12-15T04:21:30.704Z,987.48
2017-12-15T04:22:30.720Z,987.49
2017-12-15T04:23:30.732Z,987.48
2017-12-15T04:24:30.754Z,987.5
2017-12-15T04:25:30.763Z,987.48
2017-12-15T04:26:30.770Z,987.52
2017-12-15T04:27:30.785Z,987.5
2017-12-15T04:28:30.805Z,987.48
2017-12-15T04:29:30.818Z,987.5
2017-12-15T04:30:30.830Z,987.5
2017-12-15T04:32:30.860Z,987.42
2017-12-15T04:33:30.872Z,987.42
2017-12-15T04:34:30.892Z,987.44
2017-12-15T04:35:30.896Z,987.41
2017-12-15T04:36:30.915Z,987.39
2017-12-15T04:37:30.922Z,987.34
2017-12-15T04:38:30.942Z,987.42
2017-12-15T04:39:30.956Z,987.4
2017-12-15T04:40:30.964Z,987.41
2017-12-15T04:41:30.988Z,987.39
2017-12-15T04:42:31.002Z,987.38
2017-12-15T04:43:31.010Z,987.37
2017-12-15T04:44:31.022Z,987.35
2017-12-15T04:45:31.040Z,987.42
2017-12-15T04:46:31.054Z,987.39
2017-12-15T04:47:31.061Z,987.43
2017-12-15T04:48:31.074Z,987.41
2017-12-15T04:49:31.091Z,987.41
2017-12-15T04:50:31.112Z,987.39
2017-12-15T04:51:31.114Z,987.45
2017-12-15T04:52:31.135Z,987.5
2017-12-15T04:53:31.152Z,987.47
2017-12-15T04:54:31.166Z,987.47
2017-12-15T04:55:31.172Z,987.45
2017-12-15T04:56:31.189Z,987.44
2017-12-15T04:57:31.207Z,987.43
2017-12-15T04:58:31.211Z,987.44
2017-12-15T04:59:31.224Z,987.36
2017-12-15T05:00:31.247Z,987.36
2017-12-15T05:01:31.263Z,987.4
2017-12-15T05:02:31.266Z,987.43
2017-12-15T05:04:31.299Z,987.45
2017-12-15T05:05:31.312Z,987.51
2017-12-15T05:06:31.322Z,987.52
2017-12-15T05:07:31.343Z,987.54
2017-12-15T05:08:31.353Z,987.5
2017-12-15T05:09:31.368Z,987.53
2017-12-15T05:10:31.374Z,987.51
2017-12-15T05:11:31.456Z,987.51
2017-12-15T05:12:31.412Z,987.52
2017-12-15T05:13:31.420Z,987.51
2017-12-15T05:14:31.486Z,987.49
2017-12-15T05:15:31.458Z,987.53
2017-12-15T05:16:31.456Z,987.51
2017-12-15T05:17:31.475Z,987.55
2017-12-15T05:18:31.489Z,987.55
2017-12-15T05:20:31.522Z,987.58
2017-12-15T05:21:31.530Z,987.53
2017-12-15T05:22:31.539Z,987.57
2017-12-15T05:23:31.553Z,987.55
2017-12-15T05:24:31.565Z,987.56
2017-12-15T05:25:31.590Z,987.52
2017-12-15T05:26:31.592Z,987.52
2017-12-15T05:27:31.612Z,987.5
2017-12-15T05:28:31.630Z,987.51
2017-12-15T05:29:31.643Z,987.46
2017-12-15T05:30:31.651Z,987.51
2017-12-15T05:31:31.672Z,987.53
2017-12-15T05:32:31.674Z,987.58
2017-12-15T05:33:31.700Z,987.57
2017-12-15T05:34:31.708Z,987.54
2017-12-15T05:36:31.739Z,987.53
2017-12-15T05:37:31.743Z,987.56
2017-12-15T05:38:31.767Z,987.6
2017-12-15T05:39:31.770Z,987.62
2017-12-15T05:40:31.796Z,987.58
2017-12-15T05:41:31.805Z,987.54
2017-12-15T05:42:31.811Z,987.48
2017-12-15T05:43:31.835Z,987.49
2017-12-15T05:44:31.867Z,987.5
2017-12-15T05:45:31.872Z,987.51
2017-12-15T05:46:31.876Z,987.55
2017-12-15T05:47:31.890Z,987.63
2017-12-15T05:48:31.904Z,987.64
2017-12-15T05:49:31.913Z,987.68
2017-12-15T05:50:31.926Z,987.64
2017-12-15T05:52:31.955Z,987.59
2017-12-15T05:53:31.969Z,987.63
2017-12-15T05:54:31.980Z,987.67
2017-12-15T05:55:31.995Z,987.65
2017-12-15T05:56:32.004Z,987.64
2017-12-15T05:57:32.024Z,987.69
2017-12-15T05:58:32.031Z,987.68
2017-12-15T05:59:32.055Z,987.64
2017-12-15T06:00:32.070Z,987.62
2017-12-15T06:01:32.080Z,987.6
2017-12-15T06:02:32.093Z,987.55
2017-12-15T06:03:32.112Z,987.58
2017-12-15T06:04:32.121Z,987.59
2017-12-15T06:05:32.129Z,987.64
2017-12-15T06:07:32.163Z,987.68
2017-12-15T06:08:32.176Z,987.69
2017-12-15T06:09:32.188Z,987.65
2017-12-15T06:10:32.202Z,987.65
2017-12-15T06:11:32.217Z,987.67
2017-12-15T06:12:32.226Z,987.71
2017-12-15T06:13:32.253Z,987.7
2017-12-15T06:14:32.260Z,987.71
2017-12-15T06:15:32.277Z,987.66
2017-12-15T06:16:32.295Z,987.7
2017-12-15T06:17:32.295Z,987.72
2017-12-15T06:18:32.309Z,987.69
2017-12-15T06:19:32.326Z,987.71
2017-12-15T06:20:32.337Z,987.71
2017-12-15T06:21:32.350Z,987.75
2017-12-15T06:22:32.363Z,987.81
2017-12-15T06:23:32.376Z,987.81
2017-12-15T06:24:32.400Z,987.84
2017-12-15T06:25:32.409Z,987.83
2017-12-15T06:26:32.429Z,987.9
2017-12-15T06:27:32.443Z,987.92
2017-12-15T06:28:32.453Z,987.88
2017-12-15T06:29:32.464Z,987.91
2017-12-15T06:30:32.474Z,987.92
2017-12-15T06:31:32.488Z,987.91
2017-12-15T06:32:32.511Z,987.94
2017-12-15T06:33:32.515Z,987.92
2017-12-15T06:34:32.540Z,987.91
2017-12-15T06:35:32.550Z,987.88
2017-12-15T06:36:32.557Z,987.9
2017-12-15T06:37:32.573Z,987.87
2017-12-15T06:39:32.599Z,987.88
2017-12-15T06:40:32.617Z,987.93
2017-12-15T06:41:32.636Z,987.93
2017-12-15T06:42:32.645Z,987.94
2017-12-15T06:43:32.659Z,987.93
2017-12-15T06:44:32.678Z,987.91
2017-12-15T06:45:32.687Z,987.87
2017-12-15T06:46:32.706Z,987.87
2017-12-15T06:47:32.719Z,987.92
2017-12-15T06:48:32.726Z,987.92
2017-12-15T06:49:32.746Z,987.9
2017-12-15T06:50:32.756Z,987.91
2017-12-15T06:51:32.768Z,987.9
2017-12-15T06:52:32.783Z,987.93
2017-12-15T06:53:32.795Z,987.94
2017-12-15T06:55:32.824Z,987.96
2017-12-15T06:56:32.838Z,988
2017-12-15T06:57:32.858Z,988.01
2017-12-15T06:58:32.867Z,988.07
2017-12-15T06:59:32.874Z,988.08
2017-12-15T07:00:32.899Z,988.11
2017-12-15T07:01:32.913Z,988.16
2017-12-15T07:02:32.931Z,988.14
2017-12-15T07:03:32.940Z,988.17
2017-12-15T07:04:32.950Z,988.12
2017-12-15T07:05:32.959Z,988.15
2017-12-15T07:06:32.978Z,988.16
2017-12-15T07:07:32.991Z,988.22
2017-12-15T07:08:33.003Z,988.24
2017-12-15T07:09:33.018Z,988.27
2017-12-15T07:11:33.051Z,988.28
2017-12-15T07:12:33.062Z,988.25
2017-12-15T07:13:33.069Z,988.25
2017-12-15T07:14:33.093Z,988.22
2017-12-15T07:15:33.100Z,988.22
2017-12-15T07:16:33.120Z,988.23
2017-12-15T07:17:33.132Z,988.22
2017-12-15T07:18:33.137Z,988.25
2017-12-15T07:19:33.158Z,988.23
2017-12-15T07:20:33.165Z,988.27
2017-12-15T07:21:33.179Z,988.23
2017-12-15T07:22:33.204Z,988.26
2017-12-15T07:23:33.211Z,988.28
2017-12-15T07:24:33.231Z,988.28
2017-12-15T07:25:33.240Z,988.28
2017-12-15T07:27:33.273Z,988.3
2017-12-15T07:28:33.277Z,988.27
2017-12-15T07:29:33.299Z,988.27
2017-12-15T07:30:33.311Z,988.3
2017-12-15T07:31:33.325Z,988.28
2017-12-15T07:32:33.335Z,988.31
2017-12-15T07:33:33.351Z,988.28
2017-12-15T07:34:33.366Z,988.31
2017-12-15T07:35:33.381Z,988.33
2017-12-15T07:36:33.389Z,988.3
2017-12-15T07:37:33.405Z,988.3
2017-12-15T07:38:33.415Z,988.3
2017-12-15T07:39:33.492Z,988.29
2017-12-15T07:40:33.454Z,988.32
2017-12-15T07:42:33.478Z,988.32
2017-12-15T07:43:33.495Z,988.38
2017-12-15T07:44:33.511Z,988.37
2017-12-15T07:45:33.525Z,988.36
2017-12-15T07:46:33.538Z,988.39
2017-12-15T07:47:33.542Z,988.34
2017-12-15T07:48:33.567Z,988.37
2017-12-15T07:49:33.582Z,988.43
2017-12-15T07:50:33.588Z,988.41
2017-12-15T07:51:33.607Z,988.44
2017-12-15T07:52:33.612Z,988.41
2017-12-15T07:53:33.635Z,988.44
2017-12-15T07:54:33.643Z,988.42
2017-12-15T07:55:33.657Z,988.47
2017-12-15T07:56:33.671Z,988.44
2017-12-15T07:57:33.688Z,988.42
2017-12-15T07:58:33.705Z,988.41
2017-12-15T07:59:33.716Z,988.36
2017-12-15T08:00:33.727Z,988.43
2017-12-15T08:01:33.744Z,988.4
2017-12-15T08:02:33.757Z,988.36
2017-12-15T08:03:33.776Z,988.4
2017-12-15T08:04:33.786Z,988.39
2017-12-15T08:05:33.846Z,988.39
2017-12-15T08:06:33.819Z,988.43
2017-12-15T08:07:33.825Z,988.47
2017-12-15T08:08:33.846Z,988.45
2017-12-15T08:09:33.854Z,988.5
2017-12-15T08:10:33.867Z,988.5
2017-12-15T08:11:33.878Z,988.5
2017-12-15T08:12:33.895Z,988.51
2017-12-15T08:14:33.927Z,988.53
2017-12-15T08:15:33.941Z,988.57
2017-12-15T08:16:33.947Z,988.5
2017-12-15T08:17:33.973Z,988.53
2017-12-15T08:18:33.979Z,988.5
2017-12-15T08:19:33.995Z,988.51
2017-12-15T08:20:34.008Z,988.54
2017-12-15T08:21:34.026Z,988.52
2017-12-15T08:22:34.032Z,988.51
2017-12-15T08:23:34.047Z,988.56
2017-12-15T08:24:34.061Z,988.53
2017-12-15T08:25:34.076Z,988.55
2017-12-15T08:26:34.100Z,988.56
2017-12-15T08:27:34.114Z,988.59
2017-12-15T08:28:34.118Z,988.61
2017-12-15T08:30:34.147Z,988.68
2017-12-15T08:31:34.160Z,988.68
2017-12-15T08:32:34.180Z,988.72
2017-12-15T08:33:34.194Z,988.71
2017-12-15T08:34:34.204Z,988.76
2017-12-15T08:35:34.223Z,988.77
2017-12-15T08:36:34.242Z,988.74
2017-12-15T08:37:34.252Z,988.76
2017-12-15T08:38:34.272Z,988.78
2017-12-15T08:39:34.281Z,988.8
2017-12-15T08:40:34.295Z,988.82
2017-12-15T08:41:34.304Z,988.86
2017-12-15T08:42:34.329Z,988.87
2017-12-15T08:43:34.336Z,988.86
2017-12-15T08:44:34.353Z,988.93
2017-12-15T08:46:34.379Z,988.96
2017-12-15T08:47:34.401Z,989
2017-12-15T08:48:34.414Z,989
2017-12-15T08:49:34.429Z,989.02
2017-12-15T08:50:34.438Z,989.06
2017-12-15T08:51:34.448Z,989.06
2017-12-15T08:52:34.468Z,989.11
2017-12-15T08:53:34.488Z,989.15
2017-12-15T08:54:34.501Z,989.12
2017-12-15T08:55:34.518Z,989.15
2017-12-15T08:56:34.528Z,989.09
2017-12-15T08:57:34.540Z,989.13
2017-12-15T08:58:34.591Z,989.15
2017-12-15T08:59:34.574Z,989.18
2017-12-15T09:00:34.586Z,989.16
2017-12-15T09:02:34.620Z,989.24
2017-12-15T09:03:34.624Z,989.23
2017-12-15T09:04:34.636Z,989.25
2017-12-15T09:05:34.660Z,989.3
2017-12-15T09:06:34.674Z,989.31
2017-12-15T09:07:34.677Z,989.3
2017-12-15T09:08:34.699Z,989.3
2017-12-15T09:09:34.712Z,989.28
2017-12-15T09:10:34.721Z,989.34
2017-12-15T09:11:34.741Z,989.33
2017-12-15T09:12:34.758Z,989.33
2017-12-15T09:13:34.776Z,989.34
2017-12-15T09:14:34.791Z,989.37
2017-12-15T09:15:34.901Z,989.33
2017-12-15T09:17:34.835Z,989.4
2017-12-15T09:18:34.839Z,989.42
2017-12-15T09:19:34.866Z,989.37
2017-12-15T09:20:34.867Z,989.43
2017-12-15T09:21:34.895Z,989.41
2017-12-15T09:22:34.907Z,989.44
2017-12-15T09:23:34.916Z,989.44
2017-12-15T09:24:34.931Z,989.46
2017-12-15T09:25:34.941Z,989.48
2017-12-15T09:26:34.957Z,989.5
2017-12-15T09:27:34.976Z,989.51
2017-12-15T09:28:34.993Z,989.52
2017-12-15T09:29:34.999Z,989.51
2017-12-15T09:30:35.026Z,989.52
2017-12-15T09:31:35.030Z,989.55
2017-12-15T09:32:35.052Z,989.54
2017-12-15T09:33:35.060Z,989.55
2017-12-15T09:34:35.073Z,989.58
2017-12-15T09:35:35.100Z,989.58
2017-12-15T09:36:35.114Z,989.6
2017-12-15T09:37:35.123Z,989.6
2017-12-15T09:38:35.139Z,989.57
2017-12-15T09:39:35.156Z,989.58
2017-12-15T09:40:35.173Z,989.58
2017-12-15T09:41:35.191Z,989.56
2017-12-15T09:42:35.193Z,989.55
2017-12-15T09:43:35.209Z,989.55
2017-12-15T09:44:35.221Z,989.6
2017-12-15T09:45:35.241Z,989.54
2017-12-15T09:46:35.263Z,989.53
2017-12-15T09:47:35.277Z,989.58
2017-12-15T09:49:35.303Z,989.54
2017-12-15T09:50:35.318Z,989.52
2017-12-15T09:51:35.332Z,989.53
2017-12-15T09:52:35.352Z,989.59
2017-12-15T09:53:35.365Z,989.58
2017-12-15T09:54:35.377Z,989.62
2017-12-15T09:55:35.393Z,989.62
2017-12-15T09:56:35.411Z,989.62
2017-12-15T09:57:35.431Z,989.63
2017-12-15T09:58:35.434Z,989.65
2017-12-15T09:59:35.450Z,989.64
2017-12-15T10:00:35.461Z,989.63
2017-12-15T10:01:35.482Z,989.67
2017-12-15T10:02:35.497Z,989.67
2017-12-15T10:03:35.515Z,989.69
2017-12-15T10:05:35.546Z,989.68
2017-12-15T10:06:35.551Z,989.7
2017-12-15T10:07:35.566Z,989.73
2017-12-15T10:08:35.580Z,989.73
2017-12-15T10:09:35.595Z,989.75
2017-12-15T10:10:35.620Z,989.71
2017-12-15T10:11:35.630Z,989.74
2017-12-15T10:12:35.656Z,989.74
2017-12-15T10:13:35.659Z,989.75
2017-12-15T10:14:35.676Z,989.77
2017-12-15T10:15:35.700Z,989.76
2017-12-15T10:16:35.708Z,989.82
2017-12-15T10:17:35.716Z,989.8
2017-12-15T10:18:35.730Z,989.81
2017-12-15T10:19:35.755Z,989.8
2017-12-15T10:21:35.779Z,989.79
2017-12-15T10:22:35.794Z,989.77
2017-12-15T10:23:35.811Z,989.76
2017-12-15T10:24:35.825Z,989.76
2017-12-15T10:25:35.846Z,989.75
2017-12-15T10:26:35.854Z,989.77
2017-12-15T10:27:35.871Z,989.79
2017-12-15T10:28:35.887Z,989.75
2017-12-15T10:29:35.902Z,989.79
2017-12-15T10:30:35.924Z,989.79
2017-12-15T10:31:35.935Z,989.8
2017-12-15T10:32:36.003Z,989.8
2017-12-15T10:33:35.960Z,989.81
2017-12-15T10:34:35.978Z,989.83
2017-12-15T10:35:35.992Z,989.82
2017-12-15T10:37:36.027Z,989.84
2017-12-15T10:38:36.047Z,989.84
2017-12-15T10:39:36.051Z,989.88
2017-12-15T10:40:36.066Z,989.88
2017-12-15T10:41:36.083Z,989.89
2017-12-15T10:42:36.091Z,989.88
2017-12-15T10:43:36.114Z,989.94
2017-12-15T10:44:36.129Z,989.98
2017-12-15T10:45:36.148Z,989.95
2017-12-15T10:46:36.180Z,989.98
2017-12-15T10:47:36.175Z,989.97
2017-12-15T10:48:36.190Z,990
2017-12-15T10:49:36.205Z,990.03
2017-12-15T10:50:36.225Z,990.03
2017-12-15T10:52:36.253Z,990.03
2017-12-15T10:53:36.261Z,990.04
2017-12-15T10:54:36.276Z,990.07
2017-12-15T10:55:36.302Z,990.02
2017-12-15T10:56:36.312Z,990.03
2017-12-15T10:57:36.325Z,989.99
2017-12-15T10:58:36.347Z,989.99
2017-12-15T10:59:36.359Z,990
2017-12-15T11:00:36.374Z,990.01
2017-12-15T11:01:36.388Z,990.04
2017-12-15T11:02:36.404Z,990.01
2017-12-15T11:03:36.414Z,990.01
2017-12-15T11:04:36.439Z,990
2017-12-15T11:05:36.456Z,990.04
2017-12-15T11:06:36.468Z,990.03
2017-12-15T11:07:36.477Z,990.04
2017-12-15T11:08:36.496Z,990.08
2017-12-15T11:09:36.511Z,990.03
2017-12-15T11:10:36.532Z,990.07
2017-12-15T11:11:36.542Z,990.07
2017-12-15T11:12:36.563Z,990.11
2017-12-15T11:13:36.578Z,990.13
2017-12-15T11:14:36.589Z,990.16
2017-12-15T11:15:36.608Z,990.13
2017-12-15T11:16:36.620Z,990.13
2017-12-15T11:17:36.640Z,990.18
2017-12-15T11:18:36.656Z,990.16
2017-12-15T11:19:36.667Z,990.16
2017-12-15T11:20:36.675Z,990.17
2017-12-15T11:21:36.694Z,990.19
2017-12-15T11:22:36.705Z,990.21
2017-12-15T11:24:36.747Z,990.24
2017-12-15T11:25:36.759Z,990.28
2017-12-15T11:26:36.772Z,990.27
2017-12-15T11:27:36.784Z,990.29
2017-12-15T11:28:36.806Z,990.25
2017-12-15T11:29:36.821Z,990.25
2017-12-15T11:30:36.830Z,990.27
2017-12-15T11:31:36.857Z,990.32
2017-12-15T11:32:36.874Z,990.3
2017-12-15T11:33:36.886Z,990.34
2017-12-15T11:34:36.903Z,990.31
2017-12-15T11:35:36.908Z,990.39
2017-12-15T11:36:36.924Z,990.39
2017-12-15T11:37:36.938Z,990.38
2017-12-15T11:38:36.963Z,990.37
2017-12-15T11:40:36.986Z,990.39
2017-12-15T11:41:37.004Z,990.41
2017-12-15T11:42:37.020Z,990.4
2017-12-15T11:43:37.038Z,990.41
2017-12-15T11:44:37.053Z,990.39
2017-12-15T11:45:37.072Z,990.44
2017-12-15T11:46:37.077Z,990.46
2017-12-15T11:47:37.097Z,990.45
2017-12-15T11:48:37.118Z,990.49
2017-12-15T11:49:37.127Z,990.49
2017-12-15T11:50:37.144Z,990.52
2017-12-15T11:51:37.155Z,990.51
2017-12-15T11:52:37.175Z,990.51
2017-12-15T11:53:37.191Z,990.54
2017-12-15T11:54:37.201Z,990.53
2017-12-15T11:56:37.232Z,990.51
2017-12-15T11:57:37.258Z,990.56
2017-12-15T11:58:37.267Z,990.55
2017-12-15T11:59:37.281Z,990.55
2017-12-15T12:00:37.303Z,990.58
2017-12-15T12:01:37.316Z,990.58
2017-12-15T12:02:37.331Z,990.61
2017-12-15T12:03:37.345Z,990.59
2017-12-15T12:04:37.362Z,990.6
2017-12-15T12:05:37.381Z,990.63
2017-12-15T12:06:37.395Z,990.64
2017-12-15T12:07:37.411Z,990.62
2017-12-15T12:08:37.427Z,990.66
2017-12-15T12:09:37.446Z,990.66
2017-12-15T12:10:37.452Z,990.66
2017-12-15T12:12:37.485Z,990.69
2017-12-15T12:13:37.504Z,990.7
2017-12-15T12:14:37.508Z,990.67
2017-12-15T12:15:37.523Z,990.69
2017-12-15T12:16:37.546Z,990.74
2017-12-15T12:17:37.565Z,990.73
2017-12-15T12:18:37.580Z,990.75
2017-12-15T12:19:37.586Z,990.76
2017-12-15T12:20:37.601Z,990.79
2017-12-15T12:21:37.622Z,990.78
2017-12-15T12:22:37.632Z,990.81
2017-12-15T12:23:37.657Z,990.79
2017-12-15T12:24:37.672Z,990.81
2017-12-15T12:25:37.689Z,990.83
2017-12-15T12:27:37.709Z,990.85
2017-12-15T12:28:37.728Z,990.88
2017-12-15T12:29:37.740Z,990.86
2017-12-15T12:30:37.756Z,990.9
2017-12-15T12:31:37.771Z,990.97
2017-12-15T12:32:37.794Z,991
2017-12-15T12:33:37.802Z,990.96
2017-12-15T12:34:37.824Z,991
2017-12-15T12:35:37.835Z,990.94
2017-12-15T12:36:37.854Z,991
2017-12-15T12:37:37.862Z,990.97
2017-12-15T12:38:37.882Z,990.99
2017-12-15T12:39:37.898Z,991.02
2017-12-15T12:40:37.907Z,990.99
2017-12-15T12:41:37.934Z,991.01
2017-12-15T12:42:37.946Z,991.05
2017-12-15T12:43:37.961Z,991.06
2017-12-15T12:44:37.972Z,991.06
2017-12-15T12:45:37.996Z,991.08
2017-12-15T12:46:38.009Z,991.06
2017-12-15T12:47:38.022Z,991.07
2017-12-15T12:48:38.033Z,991.11
2017-12-15T12:49:38.054Z,991.12
2017-12-15T12:50:38.060Z,991.14
2017-12-15T12:51:38.082Z,991.16
2017-12-15T12:52:38.091Z,991.18
2017-12-15T12:53:38.107Z,991.22
2017-12-15T12:54:38.121Z,991.23
2017-12-15T12:55:38.140Z,991.27
2017-12-15T12:56:38.154Z,991.27
2017-12-15T12:57:38.168Z,991.25
2017-12-15T12:59:38.196Z,991.29
2017-12-15T13:00:38.218Z,991.31
2017-12-15T13:01:38.237Z,991.3
2017-12-15T13:02:38.253Z,991.32
2017-12-15T13:03:38.256Z,991.36
2017-12-15T13:04:38.279Z,991.38
2017-12-15T13:05:38.291Z,991.37
2017-12-15T13:06:38.306Z,991.38
2017-12-15T13:07:38.318Z,991.38
2017-12-15T13:08:38.337Z,991.43
2017-12-15T13:09:38.358Z,991.42
2017-12-15T13:10:38.372Z,991.4
2017-12-15T13:11:38.377Z,991.42
2017-12-15T13:12:38.395Z,991.44